To NAV CANADA Home Page Login to a new session Search on AWWS site Disclaimer Vers la page française équivalente Tips FAQ What's new on the site To the Forecasts and Observations / NOTAM section To "File a Flight Plan" website Publications and other links Update of the User's profile FIC Telephone Numbers My Weather Data Folder Route Weather Data Regional Weather Data Local Weather Data To the Forecasts and Observations / NOTAM section
Request Generated 04/24/2019 at 16:01:52 UTC . Weather information available at that time is displayed.

METAR/TAF

IGLOOLIK/NU    

LWIS CYGT 241500Z AUTO 09003KT M23/M26 A2997=
LWIS CYGT 241400Z AUTO 00000KT M25/M28 A2999=
LWIS CYGT 241300Z AUTO 14002KT M24/M27 A2999=

TAF CYGT 241239Z 2413/2420 FCST NOT AVBL DUE NO OBS
RMK NXT FCST WILL BE ISSUED AT 251045Z=
Your time UTC time
Weather data provided by Environment Canada and NAV CANADA